sensor_id;sensor_type;location;lat;lon;timestamp;P1;durP1;ratioP1;P2;durP2;ratioP2
26157;SDS011;67284;44.782;10.282;2023-03-01T00:03:45;39.38;;;24.70;;
26157;SDS011;67284;44.782;10.282;2023-03-01T00:08:37;35.63;;;24.65;;
26157;SDS011;67284;44.782;10.282;2023-03-01T00:13:29;36.85;;;26.27;;
26157;SDS011;67284;44.782;10.282;2023-03-01T00:18:21;38.95;;;24.42;;
26157;SDS011;67284;44.782;10.282;2023-03-01T00:23:14;40.00;;;27.35;;
26157;SDS011;67284;44.782;10.282;2023-03-01T00:28:05;35.63;;;25.00;;
26157;SDS011;67284;44.782;10.282;2023-03-01T00:32:57;36.85;;;24.70;;
26157;SDS011;67284;44.782;10.282;2023-03-01T00:37:49;36.70;;;24.73;;
26157;SDS011;67284;44.782;10.282;2023-03-01T00:42:49;32.50;;;20.35;;
26157;SDS011;67284;44.782;10.282;2023-03-01T00:47:41;28.13;;;17.60;;
26157;SDS011;67284;44.782;10.282;2023-03-01T00:52:33;28.35;;;18.13;;
26157;SDS011;67284;44.782;10.282;2023-03-01T00:57:25;28.05;;;17.42;;
26157;SDS011;67284;44.782;10.282;2023-03-01T01:02:17;27.92;;;16.98;;
26157;SDS011;67284;44.782;10.282;2023-03-01T01:07:10;32.50;;;19.33;;
26157;SDS011;67284;44.782;10.282;2023-03-01T01:12:02;52.42;;;24.67;;
26157;SDS011;67284;44.782;10.282;2023-03-01T01:16:55;35.15;;;17.27;;
26157;SDS011;67284;44.782;10.282;2023-03-01T01:21:47;27.58;;;16.20;;
26157;SDS011;67284;44.782;10.282;2023-03-01T01:26:39;25.50;;;16.73;;
26157;SDS011;67284;44.782;10.282;2023-03-01T01:31:32;25.55;;;16.15;;
26157;SDS011;67284;44.782;10.282;2023-03-01T01:36:26;25.10;;;15.27;;
26157;SDS011;67284;44.782;10.282;2023-03-01T01:41:19;23.20;;;15.18;;
26157;SDS011;67284;44.782;10.282;2023-03-01T01:46:16;25.92;;;14.95;;
26157;SDS011;67284;44.782;10.282;2023-03-01T01:51:27;21.40;;;15.00;;
26157;SDS011;67284;44.782;10.282;2023-03-01T01:56:29;23.67;;;14.20;;
26157;SDS011;67284;44.782;10.282;2023-03-01T02:01:22;24.52;;;14.82;;
26157;SDS011;67284;44.782;10.282;2023-03-01T02:06:27;25.48;;;14.95;;
26157;SDS011;67284;44.782;10.282;2023-03-01T02:11:23;27.38;;;14.68;;
26157;SDS011;67284;44.782;10.282;2023-03-01T02:16:15;26.13;;;15.77;;
26157;SDS011;67284;44.782;10.282;2023-03-01T02:31:11;22.77;;;15.68;;
26157;SDS011;67284;44.782;10.282;2023-03-01T02:36:29;24.15;;;15.63;;
26157;SDS011;67284;44.782;10.282;2023-03-01T02:41:26;25.85;;;16.35;;
26157;SDS011;67284;44.782;10.282;2023-03-01T02:46:23;30.95;;;16.77;;
26157;SDS011;67284;44.782;10.282;2023-03-01T02:56:24;29.58;;;18.05;;
26157;SDS011;67284;44.782;10.282;2023-03-01T03:01:17;28.02;;;16.58;;
26157;SDS011;67284;44.782;10.282;2023-03-01T03:06:10;25.70;;;17.00;;
26157;SDS011;67284;44.782;10.282;2023-03-01T03:11:02;28.65;;;17.60;;
26157;SDS011;67284;44.782;10.282;2023-03-01T03:15:55;28.73;;;16.88;;
26157;SDS011;67284;44.782;10.282;2023-03-01T03:20:47;29.40;;;18.10;;
26157;SDS011;67284;44.782;10.282;2023-03-01T03:25:44;27.63;;;17.02;;
26157;SDS011;67284;44.782;10.282;2023-03-01T03:30:37;29.33;;;18.48;;
26157;SDS011;67284;44.782;10.282;2023-03-01T03:35:32;32.85;;;18.75;;
26157;SDS011;67284;44.782;10.282;2023-03-01T03:40:27;29.45;;;17.90;;
26157;SDS011;67284;44.782;10.282;2023-03-01T03:45:20;26.13;;;16.95;;
26157;SDS011;67284;44.782;10.282;2023-03-01T03:50:13;27.38;;;17.98;;
26157;SDS011;67284;44.782;10.282;2023-03-01T03:55:07;28.95;;;17.40;;
26157;SDS011;67284;44.782;10.282;2023-03-01T04:00:00;30.60;;;18.55;;
26157;SDS011;67284;44.782;10.282;2023-03-01T04:05:02;24.75;;;15.27;;
26157;SDS011;67284;44.782;10.282;2023-03-01T04:09:54;26.65;;;16.02;;
26157;SDS011;67284;44.782;10.282;2023-03-01T04:14:46;25.63;;;15.93;;
26157;SDS011;67284;44.782;10.282;2023-03-01T04:19:39;32.47;;;16.77;;
26157;SDS011;67284;44.782;10.282;2023-03-01T04:24:31;25.65;;;17.23;;
26157;SDS011;67284;44.782;10.282;2023-03-01T04:29:23;25.65;;;15.35;;
26157;SDS011;67284;44.782;10.282;2023-03-01T04:34:14;25.75;;;16.48;;
26157;SDS011;67284;44.782;10.282;2023-03-01T04:39:06;25.60;;;15.35;;
26157;SDS011;67284;44.782;10.282;2023-03-01T04:44:03;26.60;;;17.38;;
26157;SDS011;67284;44.782;10.282;2023-03-01T04:48:55;25.20;;;15.98;;
26157;SDS011;67284;44.782;10.282;2023-03-01T04:53:47;26.13;;;15.45;;
26157;SDS011;67284;44.782;10.282;2023-03-01T04:58:39;26.58;;;16.25;;
26157;SDS011;67284;44.782;10.282;2023-03-01T05:03:31;27.65;;;16.50;;
26157;SDS011;67284;44.782;10.282;2023-03-01T05:08:23;28.40;;;16.80;;
26157;SDS011;67284;44.782;10.282;2023-03-01T05:13:15;31.55;;;17.20;;
26157;SDS011;67284;44.782;10.282;2023-03-01T05:18:12;25.50;;;16.15;;
26157;SDS011;67284;44.782;10.282;2023-03-01T05:23:04;29.88;;;17.60;;
26157;SDS011;67284;44.782;10.282;2023-03-01T05:27:59;28.65;;;18.05;;
26157;SDS011;67284;44.782;10.282;2023-03-01T05:32:55;32.97;;;16.92;;
26157;SDS011;67284;44.782;10.282;2023-03-01T05:37:48;29.10;;;16.67;;
26157;SDS011;67284;44.782;10.282;2023-03-01T05:42:41;31.45;;;17.33;;
26157;SDS011;67284;44.782;10.282;2023-03-01T05:47:38;28.70;;;17.35;;
26157;SDS011;67284;44.782;10.282;2023-03-01T05:52:34;25.88;;;16.75;;
26157;SDS011;67284;44.782;10.282;2023-03-01T05:57:27;29.50;;;16.92;;
26157;SDS011;67284;44.782;10.282;2023-03-01T06:02:20;27.73;;;16.92;;
26157;SDS011;67284;44.782;10.282;2023-03-01T06:07:11;34.63;;;20.98;;
26157;SDS011;67284;44.782;10.282;2023-03-01T06:12:03;28.70;;;17.85;;
26157;SDS011;67284;44.782;10.282;2023-03-01T06:16:56;28.60;;;18.58;;
26157;SDS011;67284;44.782;10.282;2023-03-01T06:21:49;29.92;;;16.77;;
26157;SDS011;67284;44.782;10.282;2023-03-01T06:26:41;26.65;;;17.13;;
26157;SDS011;67284;44.782;10.282;2023-03-01T06:31:33;33.42;;;19.88;;
26157;SDS011;67284;44.782;10.282;2023-03-01T06:36:25;29.75;;;18.92;;
26157;SDS011;67284;44.782;10.282;2023-03-01T06:41:16;30.27;;;18.52;;
26157;SDS011;67284;44.782;10.282;2023-03-01T06:46:08;27.67;;;17.83;;
26157;SDS011;67284;44.782;10.282;2023-03-01T06:51:00;28.52;;;17.73;;
26157;SDS011;67284;44.782;10.282;2023-03-01T06:55:55;29.20;;;18.48;;
26157;SDS011;67284;44.782;10.282;2023-03-01T07:00:48;32.30;;;19.65;;
26157;SDS011;67284;44.782;10.282;2023-03-01T07:05:40;26.02;;;17.73;;
26157;SDS011;67284;44.782;10.282;2023-03-01T07:10:32;29.95;;;18.10;;
26157;SDS011;67284;44.782;10.282;2023-03-01T07:15:24;29.15;;;17.63;;
26157;SDS011;67284;44.782;10.282;2023-03-01T07:20:17;29.55;;;19.05;;
26157;SDS011;67284;44.782;10.282;2023-03-01T07:25:10;35.22;;;18.63;;
26157;SDS011;67284;44.782;10.282;2023-03-01T07:30:02;34.00;;;18.90;;
26157;SDS011;67284;44.782;10.282;2023-03-01T07:34:55;26.98;;;17.73;;
26157;SDS011;67284;44.782;10.282;2023-03-01T07:39:46;30.88;;;18.45;;
26157;SDS011;67284;44.782;10.282;2023-03-01T07:44:38;27.83;;;16.95;;
26157;SDS011;67284;44.782;10.282;2023-03-01T07:49:30;27.83;;;16.63;;
26157;SDS011;67284;44.782;10.282;2023-03-01T07:54:22;29.15;;;16.25;;
26157;SDS011;67284;44.782;10.282;2023-03-01T07:59:14;29.95;;;17.48;;
26157;SDS011;67284;44.782;10.282;2023-03-01T08:04:07;26.48;;;15.65;;
26157;SDS011;67284;44.782;10.282;2023-03-01T08:09:00;27.50;;;16.25;;
26157;SDS011;67284;44.782;10.282;2023-03-01T08:13:51;27.02;;;16.25;;
26157;SDS011;67284;44.782;10.282;2023-03-01T08:18:44;32.58;;;17.73;;
26157;SDS011;67284;44.782;10.282;2023-03-01T08:23:36;31.15;;;16.33;;
26157;SDS011;67284;44.782;10.282;2023-03-01T08:28:28;27.58;;;16.48;;
26157;SDS011;67284;44.782;10.282;2023-03-01T08:33:20;28.30;;;17.42;;
26157;SDS011;67284;44.782;10.282;2023-03-01T08:38:12;28.55;;;15.15;;
26157;SDS011;67284;44.782;10.282;2023-03-01T08:43:04;28.95;;;16.67;;
26157;SDS011;67284;44.782;10.282;2023-03-01T08:47:55;30.08;;;16.77;;
26157;SDS011;67284;44.782;10.282;2023-03-01T08:52:47;29.35;;;16.10;;
26157;SDS011;67284;44.782;10.282;2023-03-01T08:57:39;28.65;;;16.70;;
26157;SDS011;67284;44.782;10.282;2023-03-01T09:02:31;27.40;;;16.25;;
26157;SDS011;67284;44.782;10.282;2023-03-01T09:07:23;31.67;;;17.40;;
26157;SDS011;67284;44.782;10.282;2023-03-01T09:12:19;23.60;;;15.13;;
26157;SDS011;67284;44.782;10.282;2023-03-01T09:17:11;28.02;;;15.70;;
26157;SDS011;67284;44.782;10.282;2023-03-01T09:22:03;30.40;;;16.77;;
26157;SDS011;67284;44.782;10.282;2023-03-01T09:26:56;29.70;;;16.80;;
26157;SDS011;67284;44.782;10.282;2023-03-01T09:31:48;29.85;;;17.77;;
26157;SDS011;67284;44.782;10.282;2023-03-01T09:36:40;28.60;;;17.42;;
26157;SDS011;67284;44.782;10.282;2023-03-01T09:46:37;25.38;;;15.88;;
26157;SDS011;67284;44.782;10.282;2023-03-01T09:51:33;29.05;;;16.55;;
26157;SDS011;67284;44.782;10.282;2023-03-01T10:01:43;28.85;;;15.25;;
26157;SDS011;67284;44.782;10.282;2023-03-01T10:06:36;29.58;;;15.80;;
26157;SDS011;67284;44.782;10.282;2023-03-01T10:11:32;26.00;;;15.50;;
26157;SDS011;67284;44.782;10.282;2023-03-01T10:16:37;29.02;;;14.82;;
26157;SDS011;67284;44.782;10.282;2023-03-01T10:21:36;23.17;;;14.68;;
26157;SDS011;67284;44.782;10.282;2023-03-01T10:36:41;22.02;;;13.18;;
26157;SDS011;67284;44.782;10.282;2023-03-01T10:41:34;21.45;;;13.60;;
26157;SDS011;67284;44.782;10.282;2023-03-01T10:46:43;21.58;;;11.73;;
26157;SDS011;67284;44.782;10.282;2023-03-01T10:51:35;21.45;;;11.80;;
26157;SDS011;67284;44.782;10.282;2023-03-01T10:56:29;25.70;;;11.45;;
26157;SDS011;67284;44.782;10.282;2023-03-01T11:01:38;21.45;;;11.65;;
26157;SDS011;67284;44.782;10.282;2023-03-01T11:06:30;22.67;;;12.35;;
26157;SDS011;67284;44.782;10.282;2023-03-01T11:11:23;20.75;;;12.50;;
26157;SDS011;67284;44.782;10.282;2023-03-01T11:16:25;21.52;;;12.80;;
26157;SDS011;67284;44.782;10.282;2023-03-01T11:21:26;21.17;;;12.10;;
26157;SDS011;67284;44.782;10.282;2023-03-01T11:26:22;24.75;;;12.68;;
26157;SDS011;67284;44.782;10.282;2023-03-01T11:31:15;18.27;;;12.18;;
26157;SDS011;67284;44.782;10.282;2023-03-01T11:36:15;26.48;;;13.48;;
26157;SDS011;67284;44.782;10.282;2023-03-01T11:41:11;22.90;;;13.45;;
26157;SDS011;67284;44.782;10.282;2023-03-01T12:07:12;28.42;;;16.27;;
26157;SDS011;67284;44.782;10.282;2023-03-01T12:22:25;29.33;;;16.95;;
26157;SDS011;67284;44.782;10.282;2023-03-01T12:53:23;26.50;;;15.25;;
26157;SDS011;67284;44.782;10.282;2023-03-01T13:29:25;28.10;;;15.40;;
26157;SDS011;67284;44.782;10.282;2023-03-01T13:39:47;36.50;;;18.33;;
26157;SDS011;67284;44.782;10.282;2023-03-01T13:44:38;34.08;;;19.35;;
26157;SDS011;67284;44.782;10.282;2023-03-01T13:49:40;29.77;;;16.75;;
26157;SDS011;67284;44.782;10.282;2023-03-01T13:54:37;32.08;;;16.65;;
26157;SDS011;67284;44.782;10.282;2023-03-01T13:59:30;30.80;;;16.35;;
26157;SDS011;67284;44.782;10.282;2023-03-01T14:09:20;33.70;;;17.98;;
26157;SDS011;67284;44.782;10.282;2023-03-01T14:14:32;29.52;;;17.08;;
26157;SDS011;67284;44.782;10.282;2023-03-01T14:19:30;33.60;;;17.30;;
26157;SDS011;67284;44.782;10.282;2023-03-01T14:24:24;30.23;;;18.27;;
26157;SDS011;67284;44.782;10.282;2023-03-01T14:29:33;34.20;;;17.17;;
26157;SDS011;67284;44.782;10.282;2023-03-01T14:34:27;30.40;;;17.77;;
26157;SDS011;67284;44.782;10.282;2023-03-01T14:39:22;31.50;;;17.88;;
26157;SDS011;67284;44.782;10.282;2023-03-01T14:44:21;31.60;;;16.40;;
26157;SDS011;67284;44.782;10.282;2023-03-01T14:49:17;30.85;;;18.52;;
26157;SDS011;67284;44.782;10.282;2023-03-01T14:59:21;29.33;;;17.60;;
26157;SDS011;67284;44.782;10.282;2023-03-01T15:04:15;35.72;;;18.30;;
26157;SDS011;67284;44.782;10.282;2023-03-01T15:09:07;30.25;;;16.65;;
26157;SDS011;67284;44.782;10.282;2023-03-01T15:19:42;32.13;;;17.63;;
26157;SDS011;67284;44.782;10.282;2023-03-01T15:24:37;30.02;;;16.60;;
26157;SDS011;67284;44.782;10.282;2023-03-01T15:29:29;27.38;;;16.55;;
26157;SDS011;67284;44.782;10.282;2023-03-01T15:34:29;32.75;;;18.98;;
26157;SDS011;67284;44.782;10.282;2023-03-01T15:39:34;32.20;;;18.25;;
26157;SDS011;67284;44.782;10.282;2023-03-01T15:44:30;31.65;;;19.02;;
26157;SDS011;67284;44.782;10.282;2023-03-01T15:49:42;33.72;;;18.52;;
26157;SDS011;67284;44.782;10.282;2023-03-01T15:54:45;31.02;;;18.50;;
26157;SDS011;67284;44.782;10.282;2023-03-01T15:59:40;32.83;;;18.85;;
26157;SDS011;67284;44.782;10.282;2023-03-01T16:04:33;31.33;;;17.83;;
26157;SDS011;67284;44.782;10.282;2023-03-01T16:09:25;31.38;;;18.70;;
26157;SDS011;67284;44.782;10.282;2023-03-01T16:14:17;32.78;;;19.98;;
26157;SDS011;67284;44.782;10.282;2023-03-01T16:19:09;31.10;;;18.60;;
26157;SDS011;67284;44.782;10.282;2023-03-01T16:24:01;28.48;;;17.55;;
26157;SDS011;67284;44.782;10.282;2023-03-01T16:28:56;30.27;;;16.98;;
26157;SDS011;67284;44.782;10.282;2023-03-01T16:33:49;25.25;;;16.05;;
26157;SDS011;67284;44.782;10.282;2023-03-01T16:38:42;28.60;;;16.23;;
26157;SDS011;67284;44.782;10.282;2023-03-01T16:43:36;27.35;;;15.77;;
26157;SDS011;67284;44.782;10.282;2023-03-01T16:48:28;28.63;;;17.17;;
26157;SDS011;67284;44.782;10.282;2023-03-01T16:53:20;33.88;;;17.38;;
26157;SDS011;67284;44.782;10.282;2023-03-01T16:58:12;25.05;;;13.65;;
26157;SDS011;67284;44.782;10.282;2023-03-01T17:03:04;26.63;;;16.02;;
26157;SDS011;67284;44.782;10.282;2023-03-01T17:07:55;26.45;;;17.50;;
26157;SDS011;67284;44.782;10.282;2023-03-01T17:12:48;23.67;;;14.85;;
26157;SDS011;67284;44.782;10.282;2023-03-01T17:17:41;30.15;;;18.20;;
26157;SDS011;67284;44.782;10.282;2023-03-01T17:22:33;24.88;;;15.45;;
26157;SDS011;67284;44.782;10.282;2023-03-01T17:27:25;25.88;;;16.23;;
26157;SDS011;67284;44.782;10.282;2023-03-01T17:32:17;27.02;;;16.08;;
26157;SDS011;67284;44.782;10.282;2023-03-01T17:37:09;25.65;;;16.02;;
26157;SDS011;67284;44.782;10.282;2023-03-01T17:42:01;27.30;;;15.98;;
26157;SDS011;67284;44.782;10.282;2023-03-01T17:46:57;24.75;;;16.42;;
26157;SDS011;67284;44.782;10.282;2023-03-01T17:51:48;22.88;;;15.50;;
26157;SDS011;67284;44.782;10.282;2023-03-01T17:56:40;35.88;;;20.70;;
26157;SDS011;67284;44.782;10.282;2023-03-01T18:01:33;34.05;;;19.45;;
26157;SDS011;67284;44.782;10.282;2023-03-01T18:06:27;40.05;;;22.05;;
26157;SDS011;67284;44.782;10.282;2023-03-01T18:11:21;33.33;;;19.70;;
26157;SDS011;67284;44.782;10.282;2023-03-01T18:16:15;25.70;;;17.77;;
26157;SDS011;67284;44.782;10.282;2023-03-01T18:21:08;32.63;;;18.27;;
26157;SDS011;67284;44.782;10.282;2023-03-01T18:26:00;33.58;;;20.38;;
26157;SDS011;67284;44.782;10.282;2023-03-01T18:30:57;39.58;;;23.33;;
26157;SDS011;67284;44.782;10.282;2023-03-01T18:35:54;63.78;;;30.23;;
26157;SDS011;67284;44.782;10.282;2023-03-01T18:40:46;74.18;;;42.78;;
26157;SDS011;67284;44.782;10.282;2023-03-01T18:45:38;70.57;;;40.33;;
26157;SDS011;67284;44.782;10.282;2023-03-01T18:50:30;56.97;;;35.53;;
26157;SDS011;67284;44.782;10.282;2023-03-01T18:55:22;38.85;;;23.63;;
26157;SDS011;67284;44.782;10.282;2023-03-01T19:00:14;33.85;;;21.23;;
26157;SDS011;67284;44.782;10.282;2023-03-01T19:05:06;29.10;;;17.48;;
26157;SDS011;67284;44.782;10.282;2023-03-01T19:09:59;28.83;;;17.73;;
26157;SDS011;67284;44.782;10.282;2023-03-01T19:14:50;29.88;;;17.63;;
26157;SDS011;67284;44.782;10.282;2023-03-01T19:19:42;30.08;;;18.00;;
26157;SDS011;67284;44.782;10.282;2023-03-01T19:24:34;29.30;;;18.40;;
26157;SDS011;67284;44.782;10.282;2023-03-01T19:29:26;28.50;;;18.75;;
26157;SDS011;67284;44.782;10.282;2023-03-01T19:34:17;28.25;;;17.65;;
26157;SDS011;67284;44.782;10.282;2023-03-01T19:39:10;29.60;;;18.50;;
26157;SDS011;67284;44.782;10.282;2023-03-01T19:44:04;38.08;;;22.95;;
26157;SDS011;67284;44.782;10.282;2023-03-01T19:48:56;29.95;;;19.38;;
26157;SDS011;67284;44.782;10.282;2023-03-01T19:53:50;29.35;;;19.52;;
26157;SDS011;67284;44.782;10.282;2023-03-01T19:58:44;30.25;;;19.60;;
26157;SDS011;67284;44.782;10.282;2023-03-01T20:03:40;31.40;;;19.63;;
26157;SDS011;67284;44.782;10.282;2023-03-01T20:08:32;30.42;;;19.83;;
26157;SDS011;67284;44.782;10.282;2023-03-01T20:13:24;34.83;;;22.80;;
26157;SDS011;67284;44.782;10.282;2023-03-01T20:18:15;35.05;;;21.92;;
26157;SDS011;67284;44.782;10.282;2023-03-01T20:23:07;35.03;;;23.02;;
26157;SDS011;67284;44.782;10.282;2023-03-01T20:27:59;35.88;;;22.08;;
26157;SDS011;67284;44.782;10.282;2023-03-01T20:32:51;34.15;;;22.08;;
26157;SDS011;67284;44.782;10.282;2023-03-01T20:37:43;34.50;;;21.27;;
26157;SDS011;67284;44.782;10.282;2023-03-01T20:42:35;38.33;;;23.63;;
26157;SDS011;67284;44.782;10.282;2023-03-01T20:47:26;35.08;;;22.27;;
26157;SDS011;67284;44.782;10.282;2023-03-01T20:52:18;36.50;;;22.77;;
26157;SDS011;67284;44.782;10.282;2023-03-01T20:57:10;33.55;;;22.27;;
26157;SDS011;67284;44.782;10.282;2023-03-01T21:02:02;36.97;;;23.20;;
26157;SDS011;67284;44.782;10.282;2023-03-01T21:06:54;37.38;;;22.85;;
26157;SDS011;67284;44.782;10.282;2023-03-01T21:11:47;37.17;;;21.63;;
26157;SDS011;67284;44.782;10.282;2023-03-01T21:16:41;35.22;;;22.02;;
26157;SDS011;67284;44.782;10.282;2023-03-01T21:21:36;33.88;;;20.52;;
26157;SDS011;67284;44.782;10.282;2023-03-01T21:26:28;31.55;;;20.00;;
26157;SDS011;67284;44.782;10.282;2023-03-01T21:31:23;34.05;;;19.88;;
26157;SDS011;67284;44.782;10.282;2023-03-01T21:36:18;32.22;;;19.95;;
26157;SDS011;67284;44.782;10.282;2023-03-01T21:41:14;30.08;;;19.63;;
26157;SDS011;67284;44.782;10.282;2023-03-01T21:46:08;31.85;;;21.33;;
26157;SDS011;67284;44.782;10.282;2023-03-01T21:51:05;35.40;;;21.30;;
26157;SDS011;67284;44.782;10.282;2023-03-01T21:55:58;32.33;;;21.38;;
26157;SDS011;67284;44.782;10.282;2023-03-01T22:00:50;34.78;;;22.05;;
26157;SDS011;67284;44.782;10.282;2023-03-01T22:05:41;36.85;;;21.10;;
26157;SDS011;67284;44.782;10.282;2023-03-01T22:10:37;31.70;;;21.52;;
26157;SDS011;67284;44.782;10.282;2023-03-01T22:15:32;30.70;;;19.85;;
26157;SDS011;67284;44.782;10.282;2023-03-01T22:20:24;28.00;;;18.40;;
26157;SDS011;67284;44.782;10.282;2023-03-01T22:25:16;30.27;;;19.00;;
26157;SDS011;67284;44.782;10.282;2023-03-01T22:30:08;29.67;;;19.40;;
26157;SDS011;67284;44.782;10.282;2023-03-01T22:35:01;28.25;;;19.20;;
26157;SDS011;67284;44.782;10.282;2023-03-01T22:39:53;23.40;;;17.02;;
26157;SDS011;67284;44.782;10.282;2023-03-01T22:44:45;21.17;;;15.02;;
26157;SDS011;67284;44.782;10.282;2023-03-01T22:49:37;21.75;;;15.60;;
26157;SDS011;67284;44.782;10.282;2023-03-01T22:54:52;19.10;;;13.55;;
26157;SDS011;67284;44.782;10.282;2023-03-01T22:59:45;18.05;;;12.95;;
26157;SDS011;67284;44.782;10.282;2023-03-01T23:04:36;15.65;;;12.20;;
26157;SDS011;67284;44.782;10.282;2023-03-01T23:09:29;17.33;;;12.93;;
26157;SDS011;67284;44.782;10.282;2023-03-01T23:14:23;17.55;;;12.60;;
26157;SDS011;67284;44.782;10.282;2023-03-01T23:19:16;17.70;;;12.82;;
26157;SDS011;67284;44.782;10.282;2023-03-01T23:24:09;19.25;;;14.35;;
26157;SDS011;67284;44.782;10.282;2023-03-01T23:29:00;21.70;;;13.80;;
26157;SDS011;67284;44.782;10.282;2023-03-01T23:33:53;18.92;;;12.77;;
26157;SDS011;67284;44.782;10.282;2023-03-01T23:38:49;17.70;;;12.05;;
26157;SDS011;67284;44.782;10.282;2023-03-01T23:43:43;18.73;;;13.13;;
26157;SDS011;67284;44.782;10.282;2023-03-01T23:48:39;17.00;;;11.70;;
26157;SDS011;67284;44.782;10.282;2023-03-01T23:53:33;15.95;;;11.43;;
26157;SDS011;67284;44.782;10.282;2023-03-01T23:58:26;16.10;;;10.77;;
